Time;durP1;ratioP1;P1;durP2;ratioP2;P2;SDS_P1;SDS_P2;PMS_P1;PMS_P2;Temp;Humidity;BMP_temperature;BMP_pressure;BME280_temperature;BME280_humidity;BME280_pressure;Samples;Min_cycle;Max_cycle;Signal;HPM_P1;HPM_P2
2022/06/19 00:00:42;;;;;;;12.82;5.50;;;;;;;;;;5042123;28;20046;-66
2022/06/19 00:03:31;;;;;;;16.45;5.55;;;;;;;;;;5038307;28;20026;-65
2022/06/19 00:06:17;;;;;;;19.83;5.57;;;;;;;;;;5035182;28;20025;-68
2022/06/19 00:09:03;;;;;;;18.80;5.97;;;;;;;;;;5023740;28;20025;-67
2022/06/19 00:11:50;;;;;;;16.95;6.85;;;;;;;;;;5040316;28;20033;-67
2022/06/19 00:14:35;;;;;;;14.63;5.45;;;;;;;;;;5035266;28;20056;-69
2022/06/19 00:17:21;;;;;;;18.20;5.88;;;;;;;;;;5053759;28;20033;-67
2022/06/19 00:20:07;;;;;;;20.20;6.28;;;;;;;;;;5042821;28;20017;-67
2022/06/19 00:22:52;;;;;;;16.55;5.78;;;;;;;;;;5023525;28;20175;-69
2022/06/19 00:25:39;;;;;;;18.10;6.10;;;;;;;;;;5039505;28;20546;-68
2022/06/19 00:28:24;;;;;;;17.00;5.80;;;;;;;;;;5035910;28;20033;-67
2022/06/19 00:31:10;;;;;;;16.77;5.45;;;;;;;;;;5038944;28;20034;-67
2022/06/19 00:33:55;;;;;;;12.60;4.82;;;;;;;;;;5037187;28;20014;-67
2022/06/19 00:36:42;;;;;;;18.83;5.80;;;;;;;;;;5033878;28;20373;-67
2022/06/19 00:39:28;;;;;;;12.88;5.22;;;;;;;;;;5042444;28;20057;-66
2022/06/19 00:42:14;;;;;;;20.20;5.57;;;;;;;;;;5039772;28;20116;-60
2022/06/19 00:45:00;;;;;;;15.40;5.38;;;;;;;;;;5033638;28;20032;-66
2022/06/19 00:47:46;;;;;;;13.13;4.97;;;;;;;;;;5039288;28;20056;-67
2022/06/19 00:50:33;;;;;;;15.90;5.45;;;;;;;;;;5054524;28;20056;-67
2022/06/19 00:53:29;;;;;;;16.83;5.40;;;;;;;;;;5039723;28;20116;-67
2022/06/19 00:56:17;;;;;;;12.93;4.55;;;;;;;;;;5038160;28;20022;-67
2022/06/19 00:59:03;;;;;;;18.10;5.03;;;;;;;;;;5043591;28;20103;-62
2022/06/19 01:01:49;;;;;;;17.25;5.45;;;;;;;;;;5044150;28;20481;-68
2022/06/19 01:04:41;;;;;;;15.75;5.13;;;;;;;;;;5029232;28;20232;-68
2022/06/19 01:07:28;;;;;;;13.27;4.45;;;;;;;;;;5036860;28;20109;-68
2022/06/19 01:10:14;;;;;;;14.57;4.57;;;;;;;;;;5037125;28;20090;-69
2022/06/19 01:12:59;;;;;;;17.05;4.97;;;;;;;;;;5038953;28;20481;-67
2022/06/19 01:15:45;;;;;;;16.50;4.90;;;;;;;;;;5036729;28;20040;-66
2022/06/19 01:18:32;;;;;;;17.27;6.63;;;;;;;;;;5031323;28;20013;-74
2022/06/19 01:21:18;;;;;;;18.75;5.40;;;;;;;;;;5060903;28;20047;-66
2022/06/19 01:24:03;;;;;;;17.40;4.95;;;;;;;;;;5042486;28;20100;-66
2022/06/19 01:26:50;;;;;;;11.52;4.15;;;;;;;;;;5038848;28;20032;-66
2022/06/19 01:29:36;;;;;;;15.52;5.15;;;;;;;;;;5035609;28;20018;-66
2022/06/19 01:32:21;;;;;;;14.57;5.15;;;;;;;;;;5032111;28;20515;-66
2022/06/19 01:35:08;;;;;;;12.20;4.38;;;;;;;;;;5042399;28;20458;-66
2022/06/19 01:37:55;;;;;;;13.30;5.20;;;;;;;;;;5035025;28;20500;-65
2022/06/19 01:40:41;;;;;;;12.30;4.78;;;;;;;;;;5033867;28;20056;-64
2022/06/19 01:43:28;;;;;;;17.98;4.30;;;;;;;;;;5043298;28;20025;-66
2022/06/19 01:46:14;;;;;;;18.45;4.95;;;;;;;;;;5031033;28;20068;-66
2022/06/19 01:49:01;;;;;;;16.70;6.60;;;;;;;;;;5032834;28;20026;-65
2022/06/19 01:51:47;;;;;;;14.85;4.93;;;;;;;;;;5034757;28;20022;-65
2022/06/19 01:54:42;;;;;;;15.73;4.43;;;;;;;;;;5038638;28;20100;-65
2022/06/19 01:57:29;;;;;;;11.45;4.18;;;;;;;;;;5032969;28;20123;-60
2022/06/19 02:00:17;;;;;;;14.80;4.68;;;;;;;;;;5019048;28;20084;-60
2022/06/19 02:03:20;;;;;;;13.45;4.43;;;;;;;;;;5031467;28;20026;-60
2022/06/19 02:06:08;;;;;;;13.60;4.40;;;;;;;;;;5032848;28;20124;-60
2022/06/19 02:08:54;;;;;;;13.15;4.40;;;;;;;;;;5032153;28;20047;-59
2022/06/19 02:11:39;;;;;;;10.88;3.97;;;;;;;;;;5033137;28;20103;-62
2022/06/19 02:14:25;;;;;;;11.23;4.40;;;;;;;;;;5032631;28;20489;-65
2022/06/19 02:17:14;;;;;;;14.93;4.65;;;;;;;;;;5031991;28;20026;-66
2022/06/19 02:20:00;;;;;;;;;;;;;;;;;;5032360;28;20032;-65
2022/06/19 02:22:45;;;;;;;10.52;3.95;;;;;;;;;;5023254;28;19921;-66
2022/06/19 02:25:32;;;;;;;9.98;4.18;;;;;;;;;;5039256;28;20037;-66
2022/06/19 02:28:18;;;;;;;16.88;4.47;;;;;;;;;;5032092;28;20078;-66
2022/06/19 02:31:06;;;;;;;15.25;4.85;;;;;;;;;;5028696;28;20018;-63
2022/06/19 02:33:53;;;;;;;16.00;5.32;;;;;;;;;;5031761;28;20156;-67
2022/06/19 02:36:39;;;;;;;11.75;4.60;;;;;;;;;;5031422;28;20116;-66
2022/06/19 02:39:34;;;;;;;15.70;5.50;;;;;;;;;;5032659;28;20440;-66
2022/06/19 02:42:20;;;;;;;16.77;5.07;;;;;;;;;;5031822;28;20037;-67
2022/06/19 02:45:16;;;;;;;15.40;4.93;;;;;;;;;;5032641;28;20505;-68
2022/06/19 02:48:02;;;;;;;11.55;4.65;;;;;;;;;;5030640;28;20025;-68
2022/06/19 02:50:48;;;;;;;12.38;4.53;;;;;;;;;;5032620;28;20053;-66
2022/06/19 02:53:34;;;;;;;11.23;4.57;;;;;;;;;;5030918;28;20555;-66
2022/06/19 02:56:20;;;;;;;11.60;4.00;;;;;;;;;;5019829;28;20048;-66
2022/06/19 02:59:06;;;;;;;11.25;4.38;;;;;;;;;;5037356;28;20088;-66
2022/06/19 03:01:51;;;;;;;12.95;4.32;;;;;;;;;;5036631;28;20034;-66
2022/06/19 03:04:40;;;;;;;17.52;4.40;;;;;;;;;;5035673;28;20186;-65
2022/06/19 03:07:26;;;;;;;13.07;3.90;;;;;;;;;;5035409;28;20500;-67
2022/06/19 03:10:12;;;;;;;12.57;4.53;;;;;;;;;;5036640;28;20552;-68
2022/06/19 03:12:58;;;;;;;17.35;5.45;;;;;;;;;;5035111;28;20069;-66
2022/06/19 03:15:44;;;;;;;12.48;4.38;;;;;;;;;;5036702;28;20500;-67
2022/06/19 03:18:30;;;;;;;13.77;3.70;;;;;;;;;;5034890;28;20026;-68
2022/06/19 03:21:15;;;;;;;11.80;3.75;;;;;;;;;;5040211;28;20097;-68
2022/06/19 03:24:01;;;;;;;10.52;4.05;;;;;;;;;;5034026;28;20032;-66
2022/06/19 03:26:47;;;;;;;10.48;4.30;;;;;;;;;;5036288;28;20030;-62
2022/06/19 03:29:32;;;;;;;15.27;4.00;;;;;;;;;;5043676;28;20041;-68
2022/06/19 03:32:18;;;;;;;17.10;5.03;;;;;;;;;;5033629;28;20022;-68
2022/06/19 03:35:04;;;;;;;9.43;3.95;;;;;;;;;;5034779;28;20044;-67
2022/06/19 03:37:49;;;;;;;12.48;3.78;;;;;;;;;;5034018;28;20029;-67
2022/06/19 03:40:35;;;;;;;12.30;4.78;;;;;;;;;;5036068;28;20028;-68
2022/06/19 03:43:20;;;;;;;16.27;5.07;;;;;;;;;;5033576;28;20511;-67
2022/06/19 03:46:12;;;;;;;13.20;4.47;;;;;;;;;;5033413;28;20104;-61
2022/06/19 03:48:58;;;;;;;14.25;3.78;;;;;;;;;;5034644;28;20017;-59
2022/06/19 03:51:43;;;;;;;12.05;3.33;;;;;;;;;;5047755;28;20108;-60
2022/06/19 03:54:29;;;;;;;15.55;5.38;;;;;;;;;;5034372;28;20075;-60
2022/06/19 03:57:15;;;;;;;12.85;4.38;;;;;;;;;;5035006;28;20416;-60
2022/06/19 04:00:00;;;;;;;13.50;4.18;;;;;;;;;;5035474;28;20045;-60
2022/06/19 04:02:46;;;;;;;15.02;4.13;;;;;;;;;;5040717;28;20024;-67
2022/06/19 04:05:31;;;;;;;9.02;3.30;;;;;;;;;;5034263;28;20477;-67
2022/06/19 04:08:17;;;;;;;13.57;4.30;;;;;;;;;;5034895;28;20426;-68
2022/06/19 04:11:03;;;;;;;11.27;4.15;;;;;;;;;;5034709;28;20017;-67
2022/06/19 04:13:49;;;;;;;13.40;4.55;;;;;;;;;;5032628;28;20392;-67
2022/06/19 04:16:34;;;;;;;20.75;6.07;;;;;;;;;;5034002;28;20034;-67
2022/06/19 04:19:20;;;;;;;9.77;3.65;;;;;;;;;;5033780;28;20048;-66
2022/06/19 04:22:05;;;;;;;11.38;3.58;;;;;;;;;;5038232;28;20105;-62
2022/06/19 04:24:51;;;;;;;16.33;4.95;;;;;;;;;;5034542;28;20021;-67
2022/06/19 04:27:38;;;;;;;11.70;3.83;;;;;;;;;;5034924;28;20030;-67
2022/06/19 04:30:24;;;;;;;18.40;4.55;;;;;;;;;;5034370;28;20025;-67
2022/06/19 04:33:09;;;;;;;11.52;4.05;;;;;;;;;;5039628;28;20228;-65
2022/06/19 04:35:55;;;;;;;11.60;3.78;;;;;;;;;;5033427;28;20087;-67
2022/06/19 04:38:41;;;;;;;12.63;3.75;;;;;;;;;;5032869;28;20079;-59
2022/06/19 04:41:32;;;;;;;14.52;4.47;;;;;;;;;;5033211;28;20033;-66
2022/06/19 04:44:18;;;;;;;15.60;4.70;;;;;;;;;;5032418;28;20508;-65
2022/06/19 04:47:04;;;;;;;12.45;4.65;;;;;;;;;;5031992;28;20392;-65
2022/06/19 04:49:50;;;;;;;8.65;3.15;;;;;;;;;;5034056;28;20021;-66
2022/06/19 04:52:35;;;;;;;9.55;3.85;;;;;;;;;;5021142;28;20504;-66
2022/06/19 04:55:22;;;;;;;13.27;4.40;;;;;;;;;;5032549;28;20025;-66
2022/06/19 04:58:07;;;;;;;13.73;4.07;;;;;;;;;;5034014;28;20481;-76
2022/06/19 05:00:53;;;;;;;13.25;4.07;;;;;;;;;;5033142;28;20041;-66
2022/06/19 05:03:39;;;;;;;16.13;4.72;;;;;;;;;;5028267;28;20041;-66
2022/06/19 05:06:25;;;;;;;13.43;4.32;;;;;;;;;;5040909;28;20059;-66
2022/06/19 05:09:11;;;;;;;14.00;4.45;;;;;;;;;;5032864;28;20028;-66
2022/06/19 05:11:56;;;;;;;11.73;3.67;;;;;;;;;;5033260;28;20030;-67
2022/06/19 05:14:42;;;;;;;9.45;3.90;;;;;;;;;;5031846;28;20025;-67
2022/06/19 05:17:27;;;;;;;19.23;4.88;;;;;;;;;;5032560;28;21319;-66
2022/06/19 05:20:13;;;;;;;14.90;4.20;;;;;;;;;;5034925;28;20108;-65
2022/06/19 05:22:58;;;;;;;18.08;4.93;;;;;;;;;;5006907;28;20043;-67
2022/06/19 05:25:44;;;;;;;17.70;4.65;;;;;;;;;;5032907;28;20380;-67
2022/06/19 05:28:30;;;;;;;16.00;4.53;;;;;;;;;;5034056;28;20021;-67
2022/06/19 05:31:16;;;;;;;14.75;4.88;;;;;;;;;;5033048;28;20021;-67
2022/06/19 05:34:02;;;;;;;17.02;4.63;;;;;;;;;;5032306;28;20120;-62
2022/06/19 05:36:48;;;;;;;12.65;4.95;;;;;;;;;;5037445;28;20022;-65
2022/06/19 05:39:33;;;;;;;15.50;4.47;;;;;;;;;;5036438;28;20021;-74
2022/06/19 05:42:19;;;;;;;15.60;3.95;;;;;;;;;;5032733;28;20037;-75
2022/06/19 05:45:05;;;;;;;12.88;4.95;;;;;;;;;;5032522;28;20025;-73
2022/06/19 05:47:50;;;;;;;15.45;4.63;;;;;;;;;;5032595;28;20112;-74
2022/06/19 05:50:36;;;;;;;18.88;5.32;;;;;;;;;;5037049;28;20024;-73
2022/06/19 05:53:22;;;;;;;17.60;4.80;;;;;;;;;;5038405;28;20032;-67
2022/06/19 05:56:08;;;;;;;15.65;5.50;;;;;;;;;;5033603;28;20033;-66
2022/06/19 05:58:54;;;;;;;17.17;4.70;;;;;;;;;;5031652;28;20046;-68
2022/06/19 06:01:39;;;;;;;16.25;4.78;;;;;;;;;;5032144;28;20023;-68
2022/06/19 06:04:26;;;;;;;13.35;4.38;;;;;;;;;;5032312;28;20100;-67
2022/06/19 06:07:12;;;;;;;13.77;5.25;;;;;;;;;;5031467;28;20036;-66
2022/06/19 06:09:58;;;;;;;16.13;3.72;;;;;;;;;;5025626;28;20018;-67
2022/06/19 06:12:44;;;;;;;15.38;4.30;;;;;;;;;;5031277;28;20032;-76
2022/06/19 06:15:29;;;;;;;12.98;4.15;;;;;;;;;;5033499;28;20120;-69
2022/06/19 06:18:15;;;;;;;14.30;5.00;;;;;;;;;;5033341;28;20404;-69
2022/06/19 06:21:03;;;;;;;15.98;4.20;;;;;;;;;;5035650;28;20112;-69
2022/06/19 06:23:48;;;;;;;12.63;4.47;;;;;;;;;;5031836;28;20026;-69
2022/06/19 06:26:34;;;;;;;15.05;4.45;;;;;;;;;;5031941;28;20039;-69
2022/06/19 06:29:20;;;;;;;18.00;4.50;;;;;;;;;;5031806;28;20028;-67
2022/06/19 06:32:06;;;;;;;12.73;4.60;;;;;;;;;;5032474;28;20112;-68
2022/06/19 06:34:52;;;;;;;14.15;4.53;;;;;;;;;;5031438;28;20033;-67
2022/06/19 06:37:37;;;;;;;16.33;5.30;;;;;;;;;;5031842;28;20025;-68
2022/06/19 06:40:23;;;;;;;16.40;5.03;;;;;;;;;;5033508;28;20020;-68
2022/06/19 06:43:08;;;;;;;15.77;4.85;;;;;;;;;;5034287;28;20036;-67
2022/06/19 06:45:54;;;;;;;17.17;5.40;;;;;;;;;;5030496;28;20017;-68
2022/06/19 06:48:40;;;;;;;13.73;4.55;;;;;;;;;;5016989;28;20079;-70
2022/06/19 06:51:26;;;;;;;19.10;5.25;;;;;;;;;;5042155;28;20023;-62
2022/06/19 06:54:12;;;;;;;14.30;5.15;;;;;;;;;;5020913;28;20025;-61
2022/06/19 06:56:57;;;;;;;19.58;5.82;;;;;;;;;;5032073;28;20099;-61
2022/06/19 06:59:43;;;;;;;14.57;5.00;;;;;;;;;;5030151;28;20057;-62
2022/06/19 07:02:28;;;;;;;19.02;4.78;;;;;;;;;;5030133;28;20388;-61
2022/06/19 07:05:14;;;;;;;15.52;4.85;;;;;;;;;;5030025;28;20457;-61
2022/06/19 07:08:00;;;;;;;15.50;4.30;;;;;;;;;;5031576;28;20020;-69
2022/06/19 07:10:45;;;;;;;12.88;4.53;;;;;;;;;;5031432;28;20025;-66
2022/06/19 07:13:31;;;;;;;16.38;5.63;;;;;;;;;;5040252;28;20052;-66
2022/06/19 07:16:17;;;;;;;16.63;4.72;;;;;;;;;;5031739;28;20457;-67
2022/06/19 07:19:03;;;;;;;12.70;4.25;;;;;;;;;;5030346;28;20032;-67
2022/06/19 07:21:48;;;;;;;14.75;5.40;;;;;;;;;;5035142;28;20024;-66
2022/06/19 07:24:34;;;;;;;16.33;4.07;;;;;;;;;;5031128;28;20104;-68
2022/06/19 07:27:19;;;;;;;18.58;5.18;;;;;;;;;;5030552;28;20061;-76
2022/06/19 07:30:05;;;;;;;15.40;5.10;;;;;;;;;;5032674;28;20013;-76
2022/06/19 07:32:51;;;;;;;22.08;5.72;;;;;;;;;;5029764;28;20087;-77
2022/06/19 07:35:37;;;;;;;11.20;4.18;;;;;;;;;;5032221;28;20030;-77
2022/06/19 07:38:22;;;;;;;18.15;4.35;;;;;;;;;;5031686;28;20021;-76
2022/06/19 07:41:08;;;;;;;18.55;5.47;;;;;;;;;;5032700;28;20029;-76
2022/06/19 07:43:54;;;;;;;13.02;4.95;;;;;;;;;;5031870;28;20025;-76
2022/06/19 07:50:09;;;;;;;12.60;4.68;;;;;;;;;;5039987;28;20069;-63
2022/06/19 07:52:50;;;;;;;14.90;5.22;;;;;;;;;;5025936;28;20021;-62
2022/06/19 07:55:36;;;;;;;18.90;5.40;;;;;;;;;;5034718;28;20028;-61
2022/06/19 07:58:21;;;;;;;13.70;4.63;;;;;;;;;;5034608;28;20377;-62
2022/06/19 08:01:07;;;;;;;19.15;5.97;;;;;;;;;;5033271;28;20067;-68
2022/06/19 08:03:52;;;;;;;19.30;5.25;;;;;;;;;;5034635;28;20017;-61
2022/06/19 08:06:38;;;;;;;14.40;5.05;;;;;;;;;;5033376;28;20022;-78
2022/06/19 08:09:24;;;;;;;17.30;5.88;;;;;;;;;;5035120;28;20026;-76
2022/06/19 08:12:09;;;;;;;10.10;4.35;;;;;;;;;;5035921;28;20021;-76
2022/06/19 08:14:55;;;;;;;16.15;5.07;;;;;;;;;;5033267;28;20174;-76
2022/06/19 08:17:41;;;;;;;16.42;7.13;;;;;;;;;;5042613;28;20028;-77
2022/06/19 08:20:26;;;;;;;13.95;6.15;;;;;;;;;;5037815;28;20017;-65
2022/06/19 08:23:13;;;;;;;19.55;7.88;;;;;;;;;;5024179;28;20034;-63
2022/06/19 08:25:59;;;;;;;19.13;7.18;;;;;;;;;;5034219;28;20021;-64
2022/06/19 08:29:03;;;;;;;16.17;7.97;;;;;;;;;;5032933;28;20488;-64
2022/06/19 08:31:48;;;;;;;19.85;7.50;;;;;;;;;;5033877;28;20032;-64
2022/06/19 08:34:34;;;;;;;18.20;7.95;;;;;;;;;;5033887;28;20069;-64
2022/06/19 08:37:20;;;;;;;19.48;7.72;;;;;;;;;;5035167;28;20033;-64
2022/06/19 08:40:11;;;;;;;18.60;7.82;;;;;;;;;;5035071;28;20018;-67
2022/06/19 08:43:02;;;;;;;20.27;8.32;;;;;;;;;;5033898;28;20021;-63
2022/06/19 08:46:08;;;;;;;18.63;7.93;;;;;;;;;;5032694;28;20014;-62
2022/06/19 08:49:01;;;;;;;16.27;8.23;;;;;;;;;;5039552;28;20021;-63
2022/06/19 08:51:50;;;;;;;14.57;6.95;;;;;;;;;;5045312;28;20021;-61
2022/06/19 08:54:49;;;;;;;15.73;8.23;;;;;;;;;;5033072;28;20033;-61
2022/06/19 08:57:51;;;;;;;19.08;7.22;;;;;;;;;;5033316;28;20059;-77
2022/06/19 09:01:05;;;;;;;17.33;8.70;;;;;;;;;;5033235;28;20048;-68
2022/06/19 09:07:26;;;;;;;13.98;7.63;;;;;;;;;;5034316;28;20025;-68
2022/06/19 09:10:21;;;;;;;25.50;8.13;;;;;;;;;;5033498;28;20026;-69
2022/06/19 09:13:07;;;;;;;22.98;8.35;;;;;;;;;;5033232;28;20103;-69
2022/06/19 09:16:11;;;;;;;18.92;7.38;;;;;;;;;;5034786;28;20037;-69
2022/06/19 09:19:15;;;;;;;16.17;6.85;;;;;;;;;;5033152;28;20361;-65
2022/06/19 09:22:19;;;;;;;18.15;7.72;;;;;;;;;;5043271;28;20017;-63
2022/06/19 09:25:07;;;;;;;18.05;6.63;;;;;;;;;;5033796;28;20023;-64
2022/06/19 09:27:53;;;;;;;16.48;6.70;;;;;;;;;;5032919;28;20143;-63
2022/06/19 09:30:46;;;;;;;16.40;7.30;;;;;;;;;;5034355;28;20025;-64
2022/06/19 09:33:44;;;;;;;16.20;7.60;;;;;;;;;;5022479;28;20029;-68
2022/06/19 09:36:42;;;;;;;14.00;6.03;;;;;;;;;;5032252;28;20025;-77
2022/06/19 09:39:47;;;;;;;16.15;6.45;;;;;;;;;;5018620;28;20056;-76
2022/06/19 09:42:51;;;;;;;16.35;7.07;;;;;;;;;;5032292;28;20439;-77
2022/06/19 09:45:36;;;;;;;16.40;6.55;;;;;;;;;;5033374;28;20045;-75
2022/06/19 09:48:37;;;;;;;14.65;5.97;;;;;;;;;;5032906;28;20120;-76
2022/06/19 09:51:47;;;;;;;17.23;6.05;;;;;;;;;;5042647;28;20239;-76
2022/06/19 09:54:40;;;;;;;13.07;5.60;;;;;;;;;;5030185;28;20362;-65
2022/06/19 09:57:34;;;;;;;15.68;6.97;;;;;;;;;;5032096;28;20033;-67
2022/06/19 10:00:23;;;;;;;17.38;6.35;;;;;;;;;;5031923;28;20056;-67
2022/06/19 10:03:15;;;;;;;17.00;6.18;;;;;;;;;;5031215;28;20025;-68
2022/06/19 10:06:09;;;;;;;20.33;7.32;;;;;;;;;;5031720;28;20020;-68
2022/06/19 10:08:57;;;;;;;18.63;6.55;;;;;;;;;;5031372;28;20036;-67
2022/06/19 10:11:43;;;;;;;16.23;6.68;;;;;;;;;;5032284;28;20393;-69
2022/06/19 10:14:43;;;;;;;16.45;7.15;;;;;;;;;;5030897;28;20397;-68
2022/06/19 10:17:48;;;;;;;15.13;6.60;;;;;;;;;;5031175;28;20115;-67
2022/06/19 10:20:57;;;;;;;18.92;6.72;;;;;;;;;;5035291;28;20021;-66
2022/06/19 10:23:55;;;;;;;21.88;7.85;;;;;;;;;;5033128;28;20026;-68
2022/06/19 10:26:45;;;;;;;14.98;6.65;;;;;;;;;;5037246;28;20435;-68
2022/06/19 10:29:50;;;;;;;12.75;5.95;;;;;;;;;;5017936;28;20449;-68
2022/06/19 10:32:47;;;;;;;14.07;6.38;;;;;;;;;;5031636;28;20028;-66
2022/06/19 10:35:55;;;;;;;18.20;6.55;;;;;;;;;;5031159;28;20362;-67
2022/06/19 10:39:00;;;;;;;17.55;5.63;;;;;;;;;;5032366;28;20025;-67
2022/06/19 10:42:01;;;;;;;15.93;6.93;;;;;;;;;;5017583;28;20078;-67
2022/06/19 10:45:08;;;;;;;19.60;7.32;;;;;;;;;;5032373;28;20476;-66
2022/06/19 10:48:03;;;;;;;13.70;6.72;;;;;;;;;;5018013;28;20025;-62
2022/06/19 10:51:07;;;;;;;13.05;5.35;;;;;;;;;;5037212;28;20017;-77
2022/06/19 10:54:02;;;;;;;18.38;6.35;;;;;;;;;;5033506;28;20014;-77
2022/06/19 10:56:51;;;;;;;17.25;6.57;;;;;;;;;;5035783;28;20056;-76
2022/06/19 10:59:36;;;;;;;18.30;7.50;;;;;;;;;;5034147;28;20086;-77
2022/06/19 11:06:03;;;;;;;17.73;6.38;;;;;;;;;;5032485;28;20025;-77
2022/06/19 11:08:53;;;;;;;17.30;7.05;;;;;;;;;;5017499;28;20033;-69
2022/06/19 11:11:39;;;;;;;16.38;6.32;;;;;;;;;;5031591;28;20392;-68
2022/06/19 11:14:44;;;;;;;15.93;5.97;;;;;;;;;;5030027;28;20025;-69
2022/06/19 11:17:35;;;;;;;13.77;5.55;;;;;;;;;;5030839;28;20065;-71
2022/06/19 11:20:26;;;;;;;18.13;5.70;;;;;;;;;;5035691;28;20499;-69
2022/06/19 11:23:44;;;;;;;15.23;6.00;;;;;;;;;;5025405;28;20029;-69
2022/06/19 11:26:30;;;;;;;;;;;;;;;;;;5011612;28;20435;-77
2022/06/19 11:29:20;;;;;;;11.73;5.78;;;;;;;;;;5043886;28;19901;-67
2022/06/19 11:32:14;;;;;;;17.90;6.80;;;;;;;;;;5034099;28;20021;-68
2022/06/19 11:35:01;;;;;;;13.88;6.43;;;;;;;;;;5035409;28;20029;-66
2022/06/19 11:37:52;;;;;;;20.40;5.97;;;;;;;;;;5035304;28;20026;-66
2022/06/19 11:40:39;;;;;;;20.23;6.22;;;;;;;;;;5034216;28;20021;-67
2022/06/19 11:43:27;;;;;;;16.75;6.15;;;;;;;;;;5035646;28;20506;-66
2022/06/19 11:46:13;;;;;;;;;;;;;;;;;;5034732;28;20029;-68
2022/06/19 11:49:16;;;;;;;17.75;5.82;;;;;;;;;;5037087;28;19905;-69
2022/06/19 11:52:02;;;;;;;17.90;6.07;;;;;;;;;;5046017;28;20025;-68
2022/06/19 11:54:49;;;;;;;14.50;6.53;;;;;;;;;;5035459;28;20531;-68
2022/06/19 11:57:36;;;;;;;12.65;5.63;;;;;;;;;;5034711;28;20113;-70
2022/06/19 12:00:33;;;;;;;13.75;6.53;;;;;;;;;;5037881;28;20284;-67
2022/06/19 12:03:53;;;;;;;17.98;6.63;;;;;;;;;;5037711;28;20390;-68
2022/06/19 12:06:38;;;;;;;19.40;5.75;;;;;;;;;;5011703;28;20419;-68
2022/06/19 12:09:41;;;;;;;15.68;5.72;;;;;;;;;;5046930;28;20060;-68
2022/06/19 12:12:28;;;;;;;12.52;5.45;;;;;;;;;;5033644;28;20024;-69
2022/06/19 12:15:13;;;;;;;15.45;5.90;;;;;;;;;;5036264;28;20025;-67
2022/06/19 12:18:11;;;;;;;14.35;5.45;;;;;;;;;;5034460;28;20366;-67
2022/06/19 12:20:59;;;;;;;16.38;6.72;;;;;;;;;;5036635;28;20021;-67
2022/06/19 12:23:49;;;;;;;18.05;5.50;;;;;;;;;;5033707;28;20040;-63
2022/06/19 12:26:44;;;;;;;16.98;6.30;;;;;;;;;;5034138;28;20105;-64
2022/06/19 12:29:36;;;;;;;17.10;6.18;;;;;;;;;;5034593;28;20014;-64
2022/06/19 12:32:46;;;;;;;15.10;6.25;;;;;;;;;;5036662;28;20022;-64
2022/06/19 12:35:33;;;;;;;19.60;6.45;;;;;;;;;;5029032;28;20473;-64
2022/06/19 12:38:20;;;;;;;18.40;7.68;;;;;;;;;;5034513;28;20021;-67
2022/06/19 12:41:20;;;;;;;12.95;6.03;;;;;;;;;;5033221;28;20068;-67
2022/06/19 12:44:09;;;;;;;17.30;6.55;;;;;;;;;;5034124;28;20159;-67
2022/06/19 12:47:09;;;;;;;19.02;5.93;;;;;;;;;;5035641;28;20026;-67
2022/06/19 12:49:58;;;;;;;18.50;5.90;;;;;;;;;;5035031;28;20022;-68
2022/06/19 12:52:46;;;;;;;18.05;6.03;;;;;;;;;;5024006;28;20097;-68
2022/06/19 12:55:49;;;;;;;15.07;5.65;;;;;;;;;;5033451;28;20022;-67
2022/06/19 12:58:45;;;;;;;16.60;5.65;;;;;;;;;;5034142;28;21419;-65
2022/06/19 13:01:41;;;;;;;16.95;6.15;;;;;;;;;;5033989;28;20021;-66
2022/06/19 13:04:36;;;;;;;17.92;6.05;;;;;;;;;;5037291;28;20048;-66
2022/06/19 13:07:29;;;;;;;17.08;6.20;;;;;;;;;;5034845;28;20464;-66
2022/06/19 13:10:29;;;;;;;17.42;6.60;;;;;;;;;;5032297;28;20376;-66
2022/06/19 13:13:20;;;;;;;11.95;5.78;;;;;;;;;;5033272;28;20484;-66
2022/06/19 13:16:12;;;;;;;15.32;5.60;;;;;;;;;;5035097;28;20091;-68
2022/06/19 13:19:30;;;;;;;16.67;6.03;;;;;;;;;;5032678;28;20057;-69
2022/06/19 13:22:19;;;;;;;14.73;6.32;;;;;;;;;;5008991;28;20025;-69
2022/06/19 13:25:17;;;;;;;15.43;5.55;;;;;;;;;;5034396;28;20034;-68
2022/06/19 13:28:25;;;;;;;14.68;5.88;;;;;;;;;;5033646;28;20025;-68
2022/06/19 13:31:16;;;;;;;16.93;6.07;;;;;;;;;;5031651;28;20045;-69
2022/06/19 13:34:20;;;;;;;14.80;5.80;;;;;;;;;;5033714;28;20075;-66
2022/06/19 13:37:09;;;;;;;14.75;5.85;;;;;;;;;;5038752;28;20116;-60
2022/06/19 13:40:01;;;;;;;16.08;6.90;;;;;;;;;;5033114;28;20021;-63
2022/06/19 13:43:07;;;;;;;12.60;6.35;;;;;;;;;;5032439;28;20029;-61
2022/06/19 13:45:57;;;;;;;15.98;6.20;;;;;;;;;;5031173;28;20034;-61
2022/06/19 13:48:42;;;;;;;12.95;6.05;;;;;;;;;;5032245;28;20021;-61
2022/06/19 13:51:28;;;;;;;19.77;6.15;;;;;;;;;;5044543;28;20028;-61
2022/06/19 13:54:23;;;;;;;16.25;6.10;;;;;;;;;;5021452;28;20025;-76
2022/06/19 13:57:11;;;;;;;19.92;5.93;;;;;;;;;;5032412;28;20099;-76
2022/06/19 13:59:57;;;;;;;;;;;;;;;;;;5032838;28;20045;-75
2022/06/19 14:03:05;;;;;;;16.25;6.43;;;;;;;;;;5034037;28;20352;-75
2022/06/19 14:05:51;;;;;;;;;;;;;;;;;;5033280;28;20032;-75
2022/06/19 14:08:47;;;;;;;11.05;5.30;;;;;;;;;;5037386;28;19936;-76
2022/06/19 14:12:03;;;;;;;17.63;5.80;;;;;;;;;;5034891;28;20071;-61
2022/06/19 14:14:43;;;;;;;16.70;7.72;;;;;;;;;;5031009;28;20504;-67
2022/06/19 14:17:39;;;;;;;15.10;6.20;;;;;;;;;;5032095;28;20029;-67
2022/06/19 14:20:47;;;;;;;12.07;6.03;;;;;;;;;;5046787;28;20171;-67
2022/06/19 14:23:33;;;;;;;;;;;;;;;;;;5025527;28;20021;-67
2022/06/19 14:26:33;;;;;;;16.08;5.68;;;;;;;;;;5033875;28;20344;-67
2022/06/19 14:29:41;;;;;;;17.85;6.18;;;;;;;;;;5017868;28;20091;-70
2022/06/19 14:32:28;;;;;;;18.77;6.23;;;;;;;;;;5096869;22;20410;-73
2022/06/19 14:35:19;;;;;;;14.77;6.10;;;;;;;;;;5132299;27;20380;-72
2022/06/19 14:38:08;;;;;;;13.43;5.53;;;;;;;;;;5132885;27;20101;-71
2022/06/19 14:40:56;;;;;;;16.58;6.18;;;;;;;;;;5138663;27;20011;-73
2022/06/19 14:43:44;;;;;;;20.65;6.32;;;;;;;;;;5132889;27;20015;-72
2022/06/19 14:46:41;;;;;;;18.60;6.22;;;;;;;;;;5131552;27;20111;-69
2022/06/19 14:49:46;;;;;;;19.55;5.90;;;;;;;;;;5097901;27;20019;-69
2022/06/19 14:52:32;;;;;;;19.67;6.40;;;;;;;;;;5107186;27;20050;-68
2022/06/19 14:55:47;;;;;;;22.02;6.15;;;;;;;;;;5117997;27;20027;-69
2022/06/19 14:58:40;;;;;;;13.27;5.22;;;;;;;;;;5055329;28;20103;-69
2022/06/19 15:01:28;;;;;;;17.45;6.38;;;;;;;;;;5128882;28;20031;-69
2022/06/19 15:04:33;;;;;;;15.75;5.63;;;;;;;;;;5131597;28;20034;-68
2022/06/19 15:07:21;;;;;;;17.38;6.30;;;;;;;;;;5117705;28;20057;-67
2022/06/19 15:10:10;;;;;;;13.23;6.03;;;;;;;;;;5132502;28;20023;-74
2022/06/19 15:13:04;;;;;;;15.02;5.63;;;;;;;;;;5124607;28;20059;-73
2022/06/19 15:15:54;;;;;;;21.20;6.32;;;;;;;;;;5144404;27;20062;-76
2022/06/19 15:18:47;;;;;;;14.98;5.38;;;;;;;;;;5151039;27;20015;-74
2022/06/19 15:21:37;;;;;;;14.50;5.35;;;;;;;;;;5148698;27;20110;-76
2022/06/19 15:24:49;;;;;;;17.80;7.15;;;;;;;;;;5151318;27;20027;-69
2022/06/19 15:27:39;;;;;;;15.52;5.82;;;;;;;;;;5136795;27;20034;-69
2022/06/19 15:30:36;;;;;;;18.70;5.47;;;;;;;;;;5153045;27;20026;-66
2022/06/19 15:33:31;;;;;;;14.73;5.57;;;;;;;;;;5139150;27;20058;-66
2022/06/19 15:36:18;;;;;;;17.35;6.10;;;;;;;;;;5152122;27;20019;-65
2022/06/19 15:39:12;;;;;;;20.05;6.43;;;;;;;;;;5152321;27;20031;-65
2022/06/19 15:42:13;;;;;;;17.20;5.65;;;;;;;;;;5152187;27;20367;-67
2022/06/19 15:45:18;;;;;;;19.48;6.20;;;;;;;;;;5157830;27;20104;-64
2022/06/19 15:48:04;;;;;;;16.98;5.35;;;;;;;;;;5151181;27;20014;-62
2022/06/19 15:50:53;;;;;;;17.55;6.72;;;;;;;;;;5146209;27;20080;-63
2022/06/19 15:53:42;;;;;;;18.83;5.38;;;;;;;;;;5148338;27;20022;-62
2022/06/19 15:56:32;;;;;;;14.68;5.97;;;;;;;;;;5152756;27;20117;-62
2022/06/19 15:59:21;;;;;;;13.32;5.97;;;;;;;;;;5126499;27;20023;-64
2022/06/19 16:02:27;;;;;;;18.58;5.20;;;;;;;;;;5107533;27;20048;-69
2022/06/19 16:05:20;;;;;;;41.95;28.00;;;;;;;;;;5151634;27;20389;-74
2022/06/19 16:08:10;;;;;;;28.33;12.68;;;;;;;;;;5121027;27;20011;-74
2022/06/19 16:10:56;;;;;;;50.40;41.65;;;;;;;;;;5153629;27;20018;-73
2022/06/19 16:13:50;;;;;;;25.23;13.43;;;;;;;;;;5144041;27;20015;-74
2022/06/19 16:16:47;;;;;;;26.00;8.23;;;;;;;;;;5140180;27;20027;-74
2022/06/19 16:19:33;;;;;;;14.75;4.85;;;;;;;;;;5140865;27;20367;-66
2022/06/19 16:22:21;;;;;;;17.58;5.70;;;;;;;;;;5137325;27;20121;-64
2022/06/19 16:25:07;;;;;;;15.38;5.38;;;;;;;;;;5154283;27;20404;-64
2022/06/19 16:27:53;;;;;;;17.33;5.82;;;;;;;;;;5155011;27;20046;-64
2022/06/19 16:30:42;;;;;;;13.93;5.45;;;;;;;;;;5111587;27;20051;-65
2022/06/19 16:33:28;;;;;;;15.85;5.10;;;;;;;;;;5131215;27;20061;-64
2022/06/19 16:45:32;;;;;;;16.58;5.38;;;;;;;;;;5155549;27;20011;-65
2022/06/19 16:48:19;;;;;;;19.05;5.70;;;;;;;;;;5158386;27;20011;-65
2022/06/19 16:51:06;;;;;;;17.60;5.50;;;;;;;;;;5151413;27;20067;-65
2022/06/19 16:53:53;;;;;;;13.15;5.32;;;;;;;;;;5154259;27;20436;-65
2022/06/19 16:56:39;;;;;;;14.88;5.90;;;;;;;;;;5153683;27;20087;-65
2022/06/19 16:59:24;;;;;;;16.65;6.85;;;;;;;;;;5155144;27;20443;-64
2022/06/19 17:02:14;;;;;;;14.43;5.22;;;;;;;;;;5147450;27;21748;-62
2022/06/19 17:05:02;;;;;;;17.17;6.60;;;;;;;;;;5154011;27;20019;-63